Time;durP1;ratioP1;P1;durP2;ratioP2;P2;SDS_P1;SDS_P2;PMS_P1;PMS_P2;Temp;Humidity;BMP_temperature;BMP_pressure;BME280_temperature;BME280_humidity;BME280_pressure;Samples;Min_cycle;Max_cycle;Signal;HPM_P1;HPM_P2
2023/02/12 08:14:27;;;;;;;23.87;14.87;;;;;;;;;;5139714;27;20301;-81
2023/02/12 08:18:00;;;;;;;22.97;13.93;;;3.20;99.90;;;;;;5135929;27;20275;-78
2023/02/12 08:20:26;;;;;;;23.20;13.33;;;3.20;99.90;;;;;;5115057;28;20454;-79
2023/02/12 08:22:51;;;;;;;24.00;15.13;;;3.40;99.90;;;;;;5138400;28;20405;-79
2023/02/12 08:25:17;;;;;;;22.50;14.00;;;4.50;99.90;;;;;;5133011;28;20242;-78
2023/02/12 08:27:43;;;;;;;22.13;13.50;;;5.80;99.90;;;;;;5136001;27;20182;-79
2023/02/12 08:30:09;;;;;;;21.73;12.07;;;6.60;99.90;;;;;;5136843;27;20180;-79
2023/02/12 08:32:34;;;;;;;18.27;11.00;;;7.20;99.90;;;;;;5138758;27;20176;-79
2023/02/12 08:35:00;;;;;;;14.50;10.77;;;7.60;99.90;;;;;;5134695;28;20200;-79
2023/02/12 08:37:26;;;;;;;17.37;11.60;;;7.80;99.90;;;;;;5143642;27;20232;-82
2023/02/12 08:39:51;;;;;;;15.30;10.27;;;8.10;99.90;;;;;;5141211;27;20179;-81
2023/02/12 08:42:17;;;;;;;14.57;10.27;;;8.30;99.90;;;;;;5138089;27;20174;-82
2023/02/12 08:44:42;;;;;;;16.67;10.13;;;8.30;99.90;;;;;;5139287;28;20226;-84
2023/02/12 08:47:08;;;;;;;13.10;9.53;;;8.40;99.90;;;;;;5139727;28;20185;-80
2023/02/12 08:49:35;;;;;;;15.20;10.17;;;8.40;99.90;;;;;;5141253;28;20179;-81
2023/02/12 08:52:01;;;;;;;15.77;10.47;;;8.40;99.90;;;;;;5146622;28;20178;-81
2023/02/12 08:54:29;;;;;;;13.93;10.00;;;8.50;99.90;;;;;;5142274;28;20614;-83
2023/02/12 08:57:00;;;;;;;13.63;10.03;;;8.70;99.90;;;;;;5135278;28;20206;-82
2023/02/12 08:59:26;;;;;;;12.23;9.57;;;8.90;99.90;;;;;;5135389;28;20541;-83
2023/02/12 09:01:52;;;;;;;13.80;10.17;;;9.10;99.90;;;;;;5136439;27;20167;-83
2023/02/12 09:04:26;;;;;;;13.53;9.87;;;9.10;99.90;;;;;;5134235;28;20191;-84
2023/02/12 09:06:52;;;;;;;11.63;9.33;;;9.00;99.90;;;;;;5133780;28;20580;-83
2023/02/12 09:09:19;;;;;;;12.70;9.43;;;9.20;99.90;;;;;;5135468;28;20186;-83
2023/02/12 09:11:45;;;;;;;12.43;9.43;;;9.30;99.90;;;;;;5133148;28;20179;-84
2023/02/12 09:14:14;;;;;;;12.77;9.37;;;9.20;99.90;;;;;;5132391;28;20203;-86
2023/02/12 09:16:40;;;;;;;12.20;9.17;;;9.10;99.90;;;;;;5133598;27;20218;-84
2023/02/12 09:19:06;;;;;;;14.30;9.53;;;8.80;99.90;;;;;;5131831;28;20176;-87
2023/02/12 09:21:32;;;;;;;11.40;9.30;;;9.00;99.90;;;;;;5131031;28;20183;-87
2023/02/12 09:23:59;;;;;;;15.47;10.13;;;9.10;99.90;;;;;;5134141;28;20191;-86
2023/02/12 09:26:25;;;;;;;14.33;9.93;;;9.30;99.90;;;;;;5135342;28;20182;-85
2023/02/12 09:28:51;;;;;;;14.77;10.23;;;9.50;99.90;;;;;;5123650;28;20263;-86
2023/02/12 09:31:21;;;;;;;13.00;10.77;;;9.40;99.90;;;;;;5120119;28;20229;-84
2023/02/12 09:33:48;;;;;;;12.37;9.73;;;8.90;99.90;;;;;;5120077;28;20220;-82
2023/02/12 09:36:15;;;;;;;13.93;10.00;;;9.10;99.90;;;;;;5119534;28;20200;-83
2023/02/12 09:38:42;;;;;;;12.40;9.73;;;9.30;99.90;;;;;;5118498;28;20630;-82
2023/02/12 09:41:44;;;;;;;12.97;10.30;;;9.60;99.90;;;;;;5117154;28;20176;-82
2023/02/12 09:44:42;;;;;;;13.83;9.70;;;10.00;99.90;;;;;;5096037;28;20203;-82
2023/02/12 09:47:34;;;;;;;13.57;9.70;;;10.10;99.90;;;;;;5098520;28;20262;-81
2023/02/12 09:50:32;;;;;;;11.90;9.87;;;10.10;99.90;;;;;;5103695;28;20231;-82
2023/02/12 09:52:59;;;;;;;11.67;9.40;;;10.10;99.90;;;;;;5106914;28;20189;-81
2023/02/12 09:55:30;;;;;;;13.37;10.60;;;9.90;99.90;;;;;;5105767;28;20259;-82
2023/02/12 09:57:57;;;;;;;13.37;9.13;;;10.10;99.90;;;;;;5101883;28;20243;-82
2023/02/12 10:00:30;;;;;;;12.37;9.50;;;10.00;99.90;;;;;;5103658;28;20166;-80
2023/02/12 10:03:00;;;;;;;15.00;9.20;;;9.90;99.90;;;;;;5101509;28;20576;-82
2023/02/12 10:05:34;;;;;;;11.93;9.10;;;10.10;99.90;;;;;;5102900;28;20238;-82
2023/02/12 10:08:25;;;;;;;10.40;8.40;;;10.10;99.90;;;;;;5102258;28;20186;-81
2023/02/12 10:11:11;;;;;;;11.03;9.40;;;10.00;99.90;;;;;;5102278;28;20188;-83
2023/02/12 10:14:16;;;;;;;10.47;8.70;;;10.40;99.90;;;;;;5100965;28;20199;-84
2023/02/12 10:17:11;;;;;;;11.53;8.23;;;11.00;99.90;;;;;;5095264;28;20222;-86
2023/02/12 10:19:43;;;;;;;11.27;8.80;;;11.20;99.90;;;;;;5101130;28;20629;-81
2023/02/12 10:22:17;;;;;;;11.33;9.67;;;11.10;99.90;;;;;;5101632;28;20183;-80
2023/02/12 10:24:54;;;;;;;10.40;8.70;;;11.10;99.90;;;;;;5100177;28;20188;-81
2023/02/12 10:27:45;;;;;;;10.57;8.80;;;11.10;99.90;;;;;;5098219;28;20171;-79
2023/02/12 10:30:42;;;;;;;11.57;8.40;;;11.00;99.90;;;;;;5098961;28;20149;-81
2023/02/12 10:33:38;;;;;;;9.93;8.33;;;11.00;99.90;;;;;;5105035;28;20184;-82
2023/02/12 10:36:27;;;;;;;10.37;8.47;;;10.80;99.90;;;;;;5104810;28;20208;-82
2023/02/12 10:39:01;;;;;;;9.47;7.53;;;10.40;99.90;;;;;;5105039;28;20176;-84
2023/02/12 10:41:29;;;;;;;10.73;7.90;;;10.40;99.90;;;;;;5105368;28;20181;-85
2023/02/12 10:43:55;;;;;;;9.00;7.77;;;11.00;99.90;;;;;;5106172;28;20201;-82
2023/02/12 10:46:21;;;;;;;8.67;7.47;;;11.30;99.90;;;;;;5109061;28;20191;-82
2023/02/12 10:48:52;;;;;;;7.93;6.73;;;11.20;99.90;;;;;;5109160;28;20180;-82
2023/02/12 10:51:37;;;;;;;9.03;7.37;;;11.00;99.90;;;;;;5097715;28;20186;-82
2023/02/12 10:54:30;;;;;;;8.07;7.17;;;11.50;99.90;;;;;;5097786;28;20215;-81
2023/02/12 10:56:57;;;;;;;8.43;6.90;;;11.90;99.90;;;;;;5101594;28;20740;-80
2023/02/12 10:59:23;;;;;;;7.03;6.33;;;11.80;99.90;;;;;;5100990;28;20172;-85
2023/02/12 11:01:49;;;;;;;6.67;5.97;;;11.60;99.90;;;;;;5101837;28;20248;-84
2023/02/12 11:04:24;;;;;;;8.30;6.43;;;11.40;99.90;;;;;;5102718;28;20219;-83
2023/02/12 11:07:03;;;;;;;10.30;7.20;;;11.80;99.90;;;;;;5101527;28;20622;-82
2023/02/12 11:09:44;;;;;;;7.60;5.83;;;11.90;99.90;;;;;;5100539;28;20219;-84
2023/02/12 11:12:35;;;;;;;6.53;5.93;;;11.90;99.90;;;;;;5101438;28;20180;-86
2023/02/12 11:15:23;;;;;;;8.80;6.93;;;12.20;99.90;;;;;;5101553;28;20197;-84
2023/02/12 11:18:00;;;;;;;7.97;6.53;;;11.90;99.90;;;;;;5099208;28;20252;-82
2023/02/12 11:20:40;;;;;;;8.43;6.53;;;12.10;99.90;;;;;;5100277;28;20618;-79
2023/02/12 11:23:27;;;;;;;7.67;6.67;;;12.30;99.90;;;;;;5098825;28;20169;-80
2023/02/12 11:25:59;;;;;;;8.83;6.73;;;12.40;99.90;;;;;;5099780;28;20178;-81
2023/02/12 11:28:26;;;;;;;8.13;6.70;;;12.50;99.90;;;;;;5099915;28;20169;-81
2023/02/12 11:30:55;;;;;;;7.93;6.87;;;12.70;99.90;;;;;;5098035;28;20510;-83
2023/02/12 11:33:27;;;;;;;7.20;6.50;;;12.80;99.90;;;;;;5097376;28;20231;-85
2023/02/12 11:35:57;;;;;;;7.37;6.13;;;12.70;99.50;;;;;;5097208;28;20187;-81
2023/02/12 11:38:37;;;;;;;7.07;6.37;;;12.50;99.90;;;;;;5100225;28;20183;-80
2023/02/12 11:41:36;;;;;;;8.17;6.37;;;12.90;99.90;;;;;;5097098;28;20179;-81
2023/02/12 11:44:31;;;;;;;8.73;6.37;;;13.50;98.50;;;;;;5096295;28;20203;-81
2023/02/12 11:47:08;;;;;;;7.37;6.47;;;13.80;98.40;;;;;;5096785;28;20197;-81
2023/02/12 11:50:01;;;;;;;6.63;5.83;;;13.90;97.00;;;;;;5096125;28;20169;-79
2023/02/12 11:52:30;;;;;;;7.60;5.70;;;13.60;98.00;;;;;;5097397;28;20203;-79
2023/02/12 11:55:03;;;;;;;7.00;6.30;;;13.70;98.40;;;;;;5100241;28;20188;-79
2023/02/12 11:57:47;;;;;;;8.70;6.63;;;13.40;98.70;;;;;;5100021;28;20196;-78
2023/02/12 12:00:27;;;;;;;7.50;6.40;;;13.40;98.50;;;;;;5098135;28;20653;-78
2023/02/12 12:03:09;;;;;;;7.00;6.30;;;13.50;97.70;;;;;;5096061;28;20221;-81
2023/02/12 12:05:40;;;;;;;12.50;11.20;;;13.40;98.20;;;;;;5093451;28;20652;-80
2023/02/12 12:08:15;;;;;;;8.33;7.47;;;13.60;97.40;;;;;;5092868;28;20261;-80
2023/02/12 12:10:54;;;;;;;8.80;7.13;;;13.70;97.70;;;;;;5096878;28;20176;-80
2023/02/12 12:13:28;;;;;;;9.20;7.00;;;13.90;96.60;;;;;;5099494;28;20168;-81
2023/02/12 12:22:23;;;;;;;7.53;6.20;;;13.70;96.00;;;;;;5103428;28;20184;-81
2023/02/12 12:24:52;;;;;;;7.67;6.03;;;13.70;96.40;;;;;;5101102;28;20200;-83
2023/02/12 12:30:27;;;;;;;6.63;5.67;;;14.40;95.20;;;;;;5103553;28;20206;-81
2023/02/12 12:32:58;;;;;;;7.23;5.37;;;14.90;95.10;;;;;;5102661;28;20176;-83
2023/02/12 12:35:37;;;;;;;5.90;5.20;;;14.80;94.30;;;;;;5104516;28;20249;-80
2023/02/12 12:38:31;;;;;;;5.93;5.03;;;15.10;93.80;;;;;;5101204;28;20184;-82
2023/02/12 12:41:11;;;;;;;6.33;5.50;;;14.70;93.10;;;;;;5098045;28;20180;-80
2023/02/12 12:43:54;;;;;;;6.23;5.10;;;14.40;93.90;;;;;;5101479;28;20192;-80
2023/02/12 12:46:47;;;;;;;5.53;4.77;;;14.50;94.40;;;;;;5102590;28;20181;-82
2023/02/12 12:49:37;;;;;;;5.13;4.63;;;14.60;93.70;;;;;;5099627;28;20219;-81
2023/02/12 12:52:27;;;;;;;5.97;5.10;;;14.70;93.10;;;;;;5101602;28;20182;-81
2023/02/12 12:55:22;;;;;;;9.83;5.87;;;14.70;93.80;;;;;;5099860;28;20542;-81
2023/02/12 12:57:57;;;;;;;8.00;6.90;;;15.30;92.20;;;;;;5100375;28;20701;-81
2023/02/12 13:00:36;;;;;;;10.03;6.67;;;15.30;92.40;;;;;;5100995;28;20538;-81
2023/02/12 13:03:27;;;;;;;7.83;6.40;;;15.00;92.80;;;;;;5103654;28;20156;-80
2023/02/12 13:06:17;;;;;;;6.60;6.00;;;15.50;92.30;;;;;;5105346;28;20706;-81
2023/02/12 13:09:03;;;;;;;8.43;6.23;;;15.80;91.70;;;;;;5105173;28;20637;-82
2023/02/12 13:11:53;;;;;;;8.37;6.13;;;15.30;92.10;;;;;;5106355;28;20173;-80
2023/02/12 13:14:37;;;;;;;6.93;5.10;;;15.70;92.20;;;;;;5106286;28;20196;-80
2023/02/12 13:17:17;;;;;;;7.20;5.93;;;15.80;91.30;;;;;;5106217;28;20208;-80
2023/02/12 13:20:04;;;;;;;6.43;5.63;;;15.80;91.60;;;;;;5105062;28;20175;-81
2023/02/12 13:22:38;;;;;;;6.83;4.90;;;15.90;90.60;;;;;;5105266;28;20160;-81
2023/02/12 13:25:26;;;;;;;7.43;5.57;;;15.70;91.10;;;;;;5106100;28;20192;-81
2023/02/12 13:27:56;;;;;;;7.47;5.50;;;15.30;91.60;;;;;;5095747;28;20207;-80
2023/02/12 13:30:32;;;;;;;6.17;5.23;;;15.60;91.70;;;;;;5105408;28;20165;-81
2023/02/12 13:33:20;;;;;;;7.57;5.60;;;16.50;90.40;;;;;;5103818;28;20653;-81
2023/02/12 13:35:51;;;;;;;6.73;5.20;;;16.60;89.60;;;;;;5103588;28;20192;-81
2023/02/12 13:38:25;;;;;;;6.20;5.10;;;16.60;89.20;;;;;;5104397;28;20183;-83
2023/02/12 13:40:57;;;;;;;7.97;5.03;;;16.50;88.70;;;;;;5104222;28;20160;-81
2023/02/12 13:43:32;;;;;;;6.23;4.90;;;16.40;88.70;;;;;;5101988;28;20157;-82
2023/02/12 13:46:12;;;;;;;5.53;4.97;;;14.70;91.10;;;;;;5104572;28;20213;-81
2023/02/12 13:48:53;;;;;;;6.80;5.07;;;12.50;94.60;;;;;;5101003;28;20160;-81
2023/02/12 13:51:49;;;;;;;6.30;4.73;;;11.20;98.30;;;;;;5104192;28;20225;-82
2023/02/12 13:54:45;;;;;;;7.77;5.27;;;10.90;99.90;;;;;;5101733;28;20198;-81
2023/02/12 13:57:15;;;;;;;5.93;4.67;;;12.00;99.90;;;;;;5101190;28;20191;-81
2023/02/12 13:59:47;;;;;;;6.67;4.90;;;13.80;97.00;;;;;;5101792;28;20574;-81
2023/02/12 14:02:31;;;;;;;6.33;5.20;;;15.00;94.50;;;;;;5114094;28;20170;-80
2023/02/12 14:05:22;;;;;;;6.83;4.97;;;15.30;92.80;;;;;;5103030;28;20188;-81
2023/02/12 14:07:56;;;;;;;7.33;5.27;;;15.00;92.40;;;;;;5098741;28;20268;-80
2023/02/12 14:10:32;;;;;;;6.63;5.00;;;15.80;91.80;;;;;;5098957;28;20188;-81
2023/02/12 14:13:23;;;;;;;5.53;4.73;;;16.00;91.10;;;;;;5100430;28;20182;-79
2023/02/12 14:15:54;;;;;;;7.40;5.30;;;16.10;90.70;;;;;;5101394;28;20170;-82
2023/02/12 14:18:34;;;;;;;6.93;5.27;;;15.00;91.60;;;;;;5102107;28;20240;-82
2023/02/12 14:21:12;;;;;;;7.83;6.00;;;13.30;93.50;;;;;;5101120;28;20162;-80
2023/02/12 14:23:45;;;;;;;7.87;5.37;;;11.30;98.10;;;;;;5100783;28;20673;-81
2023/02/12 14:26:21;;;;;;;9.77;5.70;;;10.30;99.90;;;;;;5099461;28;20533;-81
2023/02/12 14:28:52;;;;;;;9.07;5.60;;;9.70;99.90;;;;;;5100882;28;20215;-81
2023/02/12 14:31:18;;;;;;;9.63;5.93;;;9.20;99.90;;;;;;5100662;28;20240;-79
2023/02/12 14:33:48;;;;;;;8.13;5.60;;;8.80;99.90;;;;;;5099177;28;20216;-80
2023/02/12 14:36:16;;;;;;;8.00;5.30;;;8.50;99.90;;;;;;5098753;28;20233;-81
2023/02/12 14:38:42;;;;;;;12.10;5.27;;;8.50;99.90;;;;;;5097990;28;20176;-80
2023/02/12 14:41:36;;;;;;;8.70;5.63;;;8.40;99.90;;;;;;5101130;28;20176;-80
2023/02/12 14:44:17;;;;;;;6.73;5.20;;;8.40;99.90;;;;;;5098618;28;20196;-80
2023/02/12 14:46:51;;;;;;;7.60;5.53;;;8.30;99.90;;;;;;5099354;28;20179;-81
2023/02/12 14:49:27;;;;;;;6.10;4.60;;;8.10;99.90;;;;;;5097169;28;20183;-80
2023/02/12 14:52:14;;;;;;;6.73;5.20;;;8.10;99.90;;;;;;5096741;28;20263;-80
2023/02/12 14:54:45;;;;;;;7.43;4.60;;;8.00;99.90;;;;;;5096421;28;20230;-81
2023/02/12 14:57:33;;;;;;;7.27;5.00;;;8.00;99.90;;;;;;5095366;28;20188;-80
2023/02/12 15:00:16;;;;;;;6.17;4.50;;;8.00;99.90;;;;;;5101103;28;20168;-80
2023/02/12 15:02:49;;;;;;;7.00;4.80;;;7.90;99.90;;;;;;5101649;28;20193;-81
2023/02/12 15:05:29;;;;;;;5.53;4.30;;;7.90;99.90;;;;;;5098201;28;20219;-80
2023/02/12 15:08:27;;;;;;;6.60;4.50;;;7.90;99.90;;;;;;5096987;28;20574;-79
2023/02/12 15:10:58;;;;;;;6.67;3.73;;;7.90;99.90;;;;;;5096430;28;20231;-79
2023/02/12 15:13:28;;;;;;;5.13;3.60;;;7.80;99.90;;;;;;5096612;28;20164;-79
2023/02/12 15:16:32;;;;;;;3.90;3.10;;;7.60;99.90;;;;;;5100073;28;20194;-79
2023/02/12 15:19:23;;;;;;;4.43;3.33;;;7.50;99.90;;;;;;5092491;28;20602;-79
2023/02/12 15:21:50;;;;;;;4.10;3.10;;;7.50;99.90;;;;;;5102442;28;20216;-79
2023/02/12 15:24:27;;;;;;;5.37;2.90;;;7.40;99.90;;;;;;5102548;28;20202;-79
2023/02/12 15:26:58;;;;;;;4.53;3.23;;;7.30;99.90;;;;;;5098889;28;20241;-79
2023/02/12 15:29:40;;;;;;;2.67;2.40;;;7.30;99.90;;;;;;5098244;28;20173;-79
